createdAt,value
2019-03-11T00:00:10.056Z,1.07
2019-03-11T00:05:12.897Z,1.70
2019-03-11T00:10:16.085Z,1.07
2019-03-11T00:15:19.804Z,1.77
2019-03-11T00:20:22.684Z,1.60
2019-03-11T00:25:25.853Z,1.63
2019-03-11T00:30:29.317Z,1.70
2019-03-11T00:35:32.899Z,2.10
2019-03-11T00:40:35.747Z,1.70
2019-03-11T00:45:38.640Z,2.67
2019-03-11T00:50:42.152Z,2.17
2019-03-11T00:55:45.368Z,2.40
2019-03-11T01:00:48.954Z,2.70
2019-03-11T01:05:52.607Z,3.20
2019-03-11T01:10:55.804Z,2.80
2019-03-11T01:15:59.024Z,1.20
2019-03-11T01:21:02.233Z,1.17
2019-03-11T01:26:05.249Z,0.80
2019-03-11T01:31:08.132Z,1.17
2019-03-11T01:36:11.339Z,2.00
2019-03-11T01:41:14.559Z,1.07
2019-03-11T01:46:17.118Z,1.83
2019-03-11T01:51:19.683Z,3.10
2019-03-11T01:56:22.962Z,4.07
2019-03-11T02:01:26.277Z,4.00
2019-03-11T02:06:29.430Z,5.40
2019-03-11T02:11:32.901Z,7.00
2019-03-11T02:16:36.463Z,7.80
2019-03-11T02:21:39.272Z,7.40
2019-03-11T02:26:42.197Z,6.60
2019-03-11T02:31:45.339Z,5.63
2019-03-11T02:36:48.238Z,4.77
2019-03-11T02:41:51.501Z,5.17
2019-03-11T02:46:54.745Z,4.30
2019-03-11T02:51:57.558Z,4.33
2019-03-11T02:57:01.073Z,4.83
2019-03-11T03:02:36.050Z,3.83
2019-03-11T03:07:38.932Z,3.40
2019-03-11T03:12:41.860Z,3.37
2019-03-11T03:17:45.159Z,3.80
2019-03-11T03:22:48.077Z,3.53
2019-03-11T03:27:51.460Z,3.83
2019-03-11T03:32:53.955Z,3.93
2019-03-11T03:37:56.570Z,4.97
2019-03-11T03:43:00.280Z,4.03
2019-03-11T03:48:03.283Z,5.53
2019-03-11T03:53:06.576Z,4.50
2019-03-11T03:58:10.095Z,5.00
2019-03-11T04:03:13.117Z,4.27
2019-03-11T04:08:16.326Z,4.10
2019-03-11T04:13:18.483Z,3.80
2019-03-11T04:18:22.054Z,4.73
2019-03-11T04:23:25.240Z,4.50
2019-03-11T04:28:28.837Z,3.73
2019-03-11T04:33:32.005Z,5.20
2019-03-11T04:38:35.151Z,4.20
2019-03-11T04:43:38.392Z,3.70
2019-03-11T04:48:41.592Z,3.90
2019-03-11T04:53:44.780Z,4.43
2019-03-11T04:58:47.997Z,4.00
2019-03-11T05:03:51.203Z,4.87
2019-03-11T05:08:54.438Z,5.67
2019-03-11T05:13:57.300Z,6.10
2019-03-11T05:18:59.936Z,5.70
2019-03-11T05:24:03.125Z,6.20
2019-03-11T05:29:06.654Z,5.50
2019-03-11T05:34:09.151Z,5.03
2019-03-11T05:39:11.853Z,5.77
2019-03-11T05:44:15.111Z,5.43
2019-03-11T05:49:17.952Z,4.97
2019-03-11T05:54:21.024Z,5.20
2019-03-11T05:59:24.261Z,5.70
2019-03-11T06:04:27.083Z,6.00
2019-03-11T06:09:30.240Z,5.10
2019-03-11T06:14:33.435Z,6.10
2019-03-11T06:19:36.890Z,5.60
2019-03-11T06:24:40.148Z,5.90
2019-03-11T06:29:43.642Z,6.30
2019-03-11T06:34:46.853Z,6.90
2019-03-11T06:39:50.352Z,5.93
2019-03-11T06:44:53.927Z,5.77
2019-03-11T06:49:56.662Z,5.20
2019-03-11T06:54:59.899Z,5.30
2019-03-11T07:00:02.682Z,4.40
2019-03-11T07:05:06.317Z,4.00
2019-03-11T07:10:09.858Z,3.97
2019-03-11T07:15:13.039Z,3.73
2019-03-11T07:20:16.358Z,3.03
2019-03-11T07:25:19.224Z,2.83
2019-03-11T07:30:22.475Z,2.80
2019-03-11T07:35:25.269Z,2.87
2019-03-11T07:40:30.441Z,3.10
2019-03-11T07:45:33.956Z,3.07
2019-03-11T07:50:37.472Z,2.33
2019-03-11T07:55:40.612Z,2.10
2019-03-11T08:00:53.252Z,1.60
2019-03-11T08:05:48.657Z,1.70
2019-03-11T08:10:51.431Z,2.13
2019-03-11T08:15:54.736Z,1.30
2019-03-11T08:20:58.423Z,1.50
2019-03-11T08:26:01.365Z,1.80
2019-03-11T08:31:05.089Z,2.27
2019-03-11T08:36:08.594Z,1.80
2019-03-11T08:41:11.796Z,2.13
2019-03-11T08:46:14.624Z,1.90
2019-03-11T08:51:17.827Z,2.63
2019-03-11T08:56:21.351Z,1.83
2019-03-11T09:01:24.652Z,1.70
2019-03-11T09:06:27.964Z,1.77
2019-03-11T09:11:30.628Z,2.07
2019-03-11T09:16:33.998Z,1.47
2019-03-11T09:21:37.398Z,1.20
2019-03-11T09:26:40.596Z,1.00
2019-03-11T09:31:43.799Z,1.20
2019-03-11T09:36:47.380Z,1.57
2019-03-11T09:41:49.699Z,1.13
2019-03-11T09:46:52.632Z,0.80
2019-03-11T09:51:55.526Z,1.10
2019-03-11T09:56:58.485Z,1.10
2019-03-11T10:02:02.030Z,1.17
2019-03-11T10:07:06.797Z,1.20
2019-03-11T10:12:09.963Z,1.83
2019-03-11T10:17:13.465Z,1.10
2019-03-11T10:22:16.937Z,1.03
2019-03-11T10:27:19.444Z,0.70
2019-03-11T10:32:22.915Z,0.97
2019-03-11T10:37:26.452Z,0.83
2019-03-11T10:42:29.439Z,0.73
2019-03-11T10:47:32.676Z,1.20
2019-03-11T10:52:35.615Z,0.73
2019-03-11T10:57:38.426Z,1.10
2019-03-11T11:02:41.838Z,1.40
2019-03-11T11:07:44.706Z,1.13
2019-03-11T11:12:48.065Z,0.73
2019-03-11T11:17:51.703Z,0.90
2019-03-11T11:22:54.917Z,1.20
2019-03-11T11:27:58.299Z,0.90
2019-03-11T11:33:00.839Z,0.93
2019-03-11T11:38:04.257Z,2.97
2019-03-11T11:43:07.537Z,2.30
2019-03-11T11:48:10.890Z,3.07
2019-03-11T11:53:14.433Z,3.40
2019-03-11T11:58:17.913Z,2.87
2019-03-11T12:03:21.129Z,2.93
2019-03-11T12:08:24.411Z,1.47
2019-03-11T12:13:27.724Z,4.60
2019-03-11T12:18:31.239Z,3.03
2019-03-11T12:23:45.595Z,3.17
2019-03-11T12:28:40.535Z,2.23
2019-03-11T12:33:44.242Z,2.07
2019-03-11T12:38:47.087Z,1.57
2019-03-11T12:43:50.702Z,1.47
2019-03-11T12:48:54.201Z,2.37
2019-03-11T12:53:57.076Z,1.53
2019-03-11T12:59:00.646Z,1.00
2019-03-11T13:04:05.031Z,1.03
2019-03-11T13:09:07.930Z,1.63
2019-03-11T13:14:10.960Z,1.70
2019-03-11T13:19:14.301Z,1.37
2019-03-11T13:24:17.495Z,1.57
2019-03-11T13:29:21.019Z,2.20
2019-03-11T13:34:24.100Z,1.77
2019-03-11T13:39:27.901Z,1.50
2019-03-11T13:44:31.463Z,1.40
2019-03-11T13:49:34.984Z,1.57
2019-03-11T13:54:38.512Z,1.27
2019-03-11T13:59:41.408Z,1.47
2019-03-11T14:04:44.317Z,1.33
2019-03-11T14:09:47.178Z,1.63
2019-03-11T14:14:50.473Z,1.20
2019-03-11T14:19:53.949Z,1.20
2019-03-11T14:24:56.968Z,1.20
2019-03-11T14:29:59.972Z,0.90
2019-03-11T14:35:02.451Z,1.00
2019-03-11T14:40:06.528Z,1.00
2019-03-11T14:45:11.981Z,0.77
2019-03-11T14:50:15.374Z,1.60
2019-03-11T14:55:18.579Z,1.00
2019-03-11T15:00:22.142Z,1.30
2019-03-11T15:05:25.093Z,1.10
2019-03-11T15:10:28.343Z,1.50
2019-03-11T15:15:31.593Z,1.50
2019-03-11T15:20:35.150Z,1.40
2019-03-11T15:25:38.353Z,2.47
2019-03-11T15:30:41.169Z,1.57
2019-03-11T15:35:44.476Z,1.30
2019-03-11T15:40:47.969Z,1.27
2019-03-11T15:45:51.612Z,1.97
2019-03-11T15:50:54.838Z,1.17
2019-03-11T15:55:57.788Z,1.40
2019-03-11T16:01:00.750Z,1.80
2019-03-11T16:06:04.502Z,1.10
2019-03-11T16:11:07.474Z,2.10
2019-03-11T16:16:10.808Z,1.20
2019-03-11T16:21:14.148Z,1.90
2019-03-11T16:26:16.727Z,1.93
2019-03-11T16:31:20.259Z,1.53
2019-03-11T16:36:23.087Z,1.70
2019-03-11T16:41:26.491Z,3.03
2019-03-11T16:46:30.163Z,1.90
2019-03-11T16:51:33.142Z,1.87
2019-03-11T16:56:36.129Z,2.00
2019-03-11T17:01:39.346Z,2.40
2019-03-11T17:06:42.576Z,2.57
2019-03-11T17:11:45.502Z,2.37
2019-03-11T17:16:50.835Z,2.70
2019-03-11T17:21:54.333Z,1.97
2019-03-11T17:26:57.319Z,1.97
2019-03-11T17:32:00.651Z,1.90
2019-03-11T17:37:03.537Z,3.40
2019-03-11T17:42:06.446Z,3.43
2019-03-11T17:47:09.528Z,5.30
2019-03-11T17:52:13.165Z,4.80
2019-03-11T17:57:16.149Z,5.00
2019-03-11T18:02:19.496Z,5.80
2019-03-11T18:07:22.988Z,4.90
2019-03-11T18:12:26.545Z,4.60
2019-03-11T18:17:29.614Z,7.53
2019-03-11T18:22:32.332Z,13.53
2019-03-11T18:27:35.644Z,9.73
2019-03-11T18:32:38.877Z,7.50
2019-03-11T18:37:42.086Z,7.67
2019-03-11T18:42:47.323Z,11.30
2019-03-11T18:47:50.605Z,16.30
2019-03-11T18:52:54.070Z,10.00
2019-03-11T18:57:57.359Z,9.87
2019-03-11T19:03:00.839Z,8.13
2019-03-11T19:08:03.888Z,8.90
2019-03-11T19:13:09.542Z,12.67
2019-03-11T19:18:12.763Z,10.63
2019-03-11T19:23:17.355Z,11.50
2019-03-11T19:28:24.781Z,6.50
2019-03-11T19:33:31.318Z,7.53
2019-03-11T19:38:37.527Z,5.77
2019-03-11T19:43:44.526Z,6.50
2019-03-11T19:48:51.678Z,6.30
2019-03-11T19:53:58.310Z,6.37
2019-03-11T19:59:08.147Z,5.90
2019-03-11T20:04:17.812Z,7.50
2019-03-11T20:09:26.059Z,6.63
2019-03-11T20:14:35.129Z,6.23
2019-03-11T20:19:43.510Z,5.80
2019-03-11T20:24:54.248Z,5.47
2019-03-11T20:29:59.661Z,4.40
2019-03-11T20:35:06.481Z,4.87
2019-03-11T20:40:12.705Z,3.60
2019-03-11T20:45:20.423Z,4.30
2019-03-11T20:50:37.624Z,3.60
2019-03-11T20:55:37.989Z,2.40
2019-03-11T21:00:43.718Z,3.77
2019-03-11T21:05:48.498Z,4.00
2019-03-11T21:10:52.253Z,3.80
2019-03-11T21:15:56.150Z,2.87
2019-03-11T21:21:04.642Z,3.20
2019-03-11T21:26:04.924Z,3.83
2019-03-11T21:31:08.594Z,3.20
2019-03-11T21:36:11.752Z,4.23
2019-03-11T21:41:15.149Z,3.23
2019-03-11T21:46:18.761Z,3.77
2019-03-11T21:51:21.949Z,2.97
2019-03-11T21:56:24.936Z,3.00
2019-03-11T22:01:28.560Z,3.03
2019-03-11T22:06:31.764Z,2.67
2019-03-11T22:11:35.284Z,2.47
2019-03-11T22:16:38.515Z,2.53
2019-03-11T22:21:42.108Z,2.87
2019-03-11T22:26:45.338Z,3.13
2019-03-11T22:31:48.596Z,2.90
2019-03-11T22:36:51.861Z,2.93
2019-03-11T22:41:54.051Z,3.27
2019-03-11T22:46:57.550Z,3.20
2019-03-11T22:52:01.013Z,3.70
2019-03-11T22:57:04.290Z,4.30
2019-03-11T23:02:11.724Z,3.30
2019-03-11T23:07:15.001Z,3.07
2019-03-11T23:12:18.563Z,3.53
2019-03-11T23:17:21.810Z,2.40
2019-03-11T23:22:25.372Z,2.30
2019-03-11T23:27:28.615Z,2.30
2019-03-11T23:32:31.578Z,2.43
2019-03-11T23:37:35.076Z,2.43
2019-03-11T23:42:37.569Z,3.03
2019-03-11T23:47:40.839Z,2.37
2019-03-11T23:52:44.481Z,1.90
2019-03-11T23:57:48.018Z,2.30
